createdAt,value
2018-07-03T00:01:36.116Z,1.57
2018-07-03T00:04:05.556Z,1.30
2018-07-03T00:06:34.955Z,1.30
2018-07-03T00:09:06.477Z,1.30
2018-07-03T00:11:35.819Z,1.30
2018-07-03T00:14:05.617Z,1.50
2018-07-03T00:16:39.997Z,1.43
2018-07-03T00:19:09.475Z,1.50
2018-07-03T00:21:38.883Z,1.50
2018-07-03T00:24:07.897Z,1.17
2018-07-03T00:26:37.252Z,1.37
2018-07-03T00:29:06.599Z,1.30
2018-07-03T00:31:35.971Z,1.50
2018-07-03T00:34:05.685Z,1.50
2018-07-03T00:36:35.046Z,1.10
2018-07-03T00:39:06.366Z,1.23
2018-07-03T00:41:35.729Z,1.50
2018-07-03T00:44:05.255Z,1.40
2018-07-03T00:46:34.437Z,1.30
2018-07-03T00:49:03.926Z,1.40
2018-07-03T00:51:33.321Z,1.50
2018-07-03T00:54:02.677Z,1.40
2018-07-03T00:56:32.492Z,1.60
2018-07-03T00:59:01.936Z,1.73
2018-07-03T01:01:31.280Z,1.43
2018-07-03T01:04:00.728Z,1.43
2018-07-03T01:06:30.296Z,1.43
2018-07-03T01:08:59.899Z,1.43
2018-07-03T01:11:29.289Z,1.30
2018-07-03T01:13:58.992Z,1.60
2018-07-03T01:16:28.457Z,1.53
2018-07-03T01:18:57.838Z,1.23
2018-07-03T01:21:27.256Z,1.20
2018-07-03T01:23:56.768Z,1.30
2018-07-03T01:26:26.127Z,1.33
2018-07-03T01:28:55.828Z,1.77
2018-07-03T01:31:25.495Z,1.43
2018-07-03T01:33:54.832Z,1.40
2018-07-03T01:36:24.219Z,1.40
2018-07-03T01:38:53.568Z,1.57
2018-07-03T01:41:22.972Z,1.40
2018-07-03T01:43:52.479Z,1.50
2018-07-03T01:46:21.830Z,1.30
2018-07-03T01:48:51.891Z,1.40
2018-07-03T01:51:21.179Z,1.20
2018-07-03T01:53:50.513Z,1.50
2018-07-03T01:56:19.795Z,1.60
2018-07-03T01:58:49.199Z,1.20
2018-07-03T02:01:18.653Z,1.67
2018-07-03T02:03:47.981Z,1.47
2018-07-03T02:06:17.883Z,1.50
2018-07-03T02:08:47.317Z,1.60
2018-07-03T02:11:16.801Z,1.50
2018-07-03T02:13:46.150Z,1.50
2018-07-03T02:16:15.483Z,1.50
2018-07-03T02:18:44.812Z,1.50
2018-07-03T02:21:14.158Z,1.40
2018-07-03T02:23:43.608Z,1.40
2018-07-03T02:26:12.948Z,1.40
2018-07-03T02:28:42.387Z,1.43
2018-07-03T02:31:11.694Z,1.43
2018-07-03T02:33:41.120Z,1.90
2018-07-03T02:36:10.502Z,1.90
2018-07-03T02:38:40.520Z,1.40
2018-07-03T02:41:09.892Z,1.50
2018-07-03T02:43:39.898Z,2.00
2018-07-03T02:46:09.680Z,1.40
2018-07-03T02:48:39.953Z,1.40
2018-07-03T02:51:09.317Z,1.70
2018-07-03T02:53:38.677Z,1.60
2018-07-03T02:56:08.058Z,1.70
2018-07-03T02:58:37.441Z,1.40
2018-07-03T03:01:06.867Z,1.40
2018-07-03T03:03:36.389Z,1.70
2018-07-03T03:06:10.127Z,1.40
2018-07-03T03:08:40.065Z,1.57
2018-07-03T03:11:09.577Z,1.47
2018-07-03T03:13:38.973Z,1.80
2018-07-03T03:16:08.425Z,1.43
2018-07-03T03:18:38.209Z,1.60
2018-07-03T03:21:07.701Z,1.40
2018-07-03T03:23:37.017Z,1.60
2018-07-03T03:26:06.444Z,1.73
2018-07-03T03:28:35.824Z,1.70
2018-07-03T03:31:05.320Z,1.60
2018-07-03T03:33:35.224Z,1.67
2018-07-03T03:36:04.772Z,1.70
2018-07-03T03:38:34.130Z,1.90
2018-07-03T03:41:04.218Z,2.10
2018-07-03T03:43:34.110Z,1.80
2018-07-03T03:46:03.163Z,1.53
2018-07-03T03:48:32.536Z,1.60
2018-07-03T03:51:02.021Z,1.60
2018-07-03T03:53:31.330Z,1.63
2018-07-03T03:56:00.847Z,1.50
2018-07-03T03:58:30.173Z,1.80
2018-07-03T04:01:01.907Z,1.60
2018-07-03T04:03:31.504Z,1.63
2018-07-03T04:06:00.918Z,1.60
2018-07-03T04:08:30.330Z,1.60
2018-07-03T04:10:59.649Z,1.87
2018-07-03T04:13:28.980Z,1.83
2018-07-03T04:15:58.049Z,1.70
2018-07-03T04:18:32.689Z,1.60
2018-07-03T04:21:03.785Z,1.67
2018-07-03T04:23:34.254Z,1.90
2018-07-03T04:26:04.213Z,1.80
2018-07-03T04:28:34.094Z,1.93
2018-07-03T04:31:03.987Z,1.77
2018-07-03T04:33:33.465Z,2.23
2018-07-03T04:36:02.763Z,1.83
2018-07-03T04:38:32.209Z,2.13
2018-07-03T04:41:02.442Z,2.00
2018-07-03T04:43:31.796Z,2.30
2018-07-03T04:46:01.173Z,2.13
2018-07-03T04:48:30.747Z,2.27
2018-07-03T04:51:00.282Z,2.20
2018-07-03T04:53:29.958Z,2.27
2018-07-03T04:55:59.223Z,1.90
2018-07-03T04:58:28.695Z,2.00
2018-07-03T05:11:10.013Z,2.00
2018-07-03T05:13:39.516Z,2.27
2018-07-03T05:16:24.882Z,2.00
2018-07-03T05:31:57.593Z,2.30
2018-07-03T05:34:46.934Z,2.10
2018-07-03T05:47:21.296Z,1.87
2018-07-03T05:49:55.305Z,2.40
2018-07-03T05:52:26.457Z,2.10
2018-07-03T05:54:55.848Z,2.13
2018-07-03T05:57:25.199Z,1.90
2018-07-03T06:10:07.824Z,1.90
2018-07-03T17:03:35.890Z,2.47
2018-07-03T17:06:05.735Z,2.50
2018-07-03T17:08:40.012Z,2.73
2018-07-03T17:11:11.029Z,2.53
2018-07-03T17:13:40.669Z,2.47
2018-07-03T17:16:10.741Z,2.70
2018-07-03T17:18:44.875Z,2.40
2018-07-03T17:21:14.994Z,2.20
2018-07-03T17:23:44.606Z,2.30
2018-07-03T17:26:14.609Z,2.40
2018-07-03T17:28:44.427Z,2.70
2018-07-03T17:31:13.846Z,2.43
2018-07-03T17:33:44.025Z,2.57
2018-07-03T17:36:14.172Z,2.23
2018-07-03T17:38:45.587Z,2.60
2018-07-03T17:41:32.475Z,2.17
2018-07-03T17:44:21.718Z,2.10
2018-07-03T17:46:51.479Z,2.23
2018-07-03T17:49:21.244Z,2.07
2018-07-03T18:17:17.023Z,2.23
2018-07-03T18:19:48.176Z,2.50
2018-07-03T18:22:18.235Z,2.17
2018-07-03T18:24:48.694Z,2.10
2018-07-03T18:27:20.147Z,2.10
2018-07-03T18:29:49.962Z,2.00
2018-07-03T18:32:19.965Z,2.00
2018-07-03T18:34:49.745Z,2.10
2018-07-03T18:37:19.725Z,1.90
2018-07-03T18:39:49.492Z,2.10
2018-07-03T18:42:20.848Z,2.23
2018-07-03T18:44:53.182Z,2.00
2018-07-03T18:47:23.998Z,2.30
2018-07-03T18:49:55.296Z,3.10
2018-07-03T18:52:25.418Z,2.40
2018-07-03T18:54:56.612Z,2.20
2018-07-03T18:57:27.249Z,2.73
2018-07-03T18:59:58.586Z,2.40
2018-07-03T19:02:28.294Z,2.00
2018-07-03T19:04:58.548Z,2.10
2018-07-03T19:07:29.981Z,2.10
2018-07-03T19:10:00.892Z,2.60
2018-07-03T19:12:32.491Z,3.10
2018-07-03T19:15:03.875Z,2.67
2018-07-03T19:17:33.767Z,2.80
2018-07-03T19:20:04.229Z,8.03
2018-07-03T19:22:36.502Z,6.83
2018-07-03T19:25:07.063Z,4.83
2018-07-03T19:27:38.167Z,5.00
2018-07-03T19:30:15.269Z,4.33
2018-07-03T19:32:45.101Z,3.43
2018-07-03T19:35:16.982Z,2.80
2018-07-03T19:37:46.533Z,2.60
2018-07-03T19:40:18.815Z,2.37
2018-07-03T19:43:29.983Z,2.30
2018-07-03T19:46:00.863Z,2.00
2018-07-03T19:48:37.466Z,1.90
2018-07-03T19:51:07.273Z,2.17
2018-07-03T19:53:36.894Z,2.60
2018-07-03T19:56:06.491Z,2.33
2018-07-03T19:58:37.150Z,2.87
2018-07-03T20:01:06.887Z,2.67
2018-07-03T20:03:37.099Z,2.67
2018-07-03T20:06:06.255Z,2.67
2018-07-03T20:08:35.690Z,2.10
2018-07-03T20:11:05.776Z,2.50
2018-07-03T20:13:35.896Z,2.40
2018-07-03T20:16:05.869Z,2.60
2018-07-03T20:18:35.464Z,2.90
2018-07-03T20:21:05.303Z,2.40
2018-07-03T20:23:35.507Z,2.90
2018-07-03T20:26:05.219Z,2.83
2018-07-03T20:28:34.677Z,2.50
2018-07-03T20:31:04.149Z,3.00
2018-07-03T20:33:33.878Z,2.80
2018-07-03T20:36:04.554Z,3.30
2018-07-03T20:38:34.067Z,2.80
2018-07-03T20:41:06.325Z,3.20
2018-07-03T20:43:38.318Z,2.80
2018-07-03T20:46:09.108Z,2.80
2018-07-03T20:48:38.525Z,2.67
2018-07-03T20:51:08.104Z,2.80
2018-07-03T20:53:38.483Z,2.60
2018-07-03T20:56:08.740Z,2.90
2018-07-03T20:58:38.150Z,2.90
2018-07-03T21:01:07.834Z,2.70
2018-07-03T21:03:38.052Z,2.50
2018-07-03T21:06:07.742Z,2.67
2018-07-03T21:08:37.070Z,3.43
2018-07-03T21:11:06.614Z,2.50
2018-07-03T21:13:37.003Z,3.20
2018-07-03T21:16:06.583Z,3.27
2018-07-03T21:18:36.080Z,4.57
2018-07-03T21:21:05.472Z,3.37
2018-07-03T21:23:34.842Z,3.63
2018-07-03T21:26:04.233Z,3.50
2018-07-03T21:28:34.352Z,3.87
2018-07-03T21:31:03.716Z,3.77
2018-07-03T21:33:33.065Z,3.30
2018-07-03T21:36:02.496Z,2.90
2018-07-03T21:38:32.029Z,3.50
2018-07-03T21:41:01.563Z,3.20
2018-07-03T21:43:31.047Z,3.10
2018-07-03T21:46:00.422Z,3.30
2018-07-03T21:48:29.762Z,2.97
2018-07-03T21:50:59.112Z,2.83
2018-07-03T21:53:28.600Z,3.00
2018-07-03T21:55:58.871Z,3.03
2018-07-03T21:58:28.357Z,2.87
2018-07-03T22:00:57.881Z,3.50
2018-07-03T22:03:27.237Z,3.20
2018-07-03T22:05:57.373Z,3.97
2018-07-03T22:08:26.867Z,3.57
2018-07-03T22:10:56.165Z,3.60
2018-07-03T22:13:25.543Z,3.50
2018-07-03T22:15:55.131Z,3.13
2018-07-03T22:18:24.524Z,3.43
2018-07-03T22:20:53.973Z,3.43
2018-07-03T22:23:23.757Z,3.57
2018-07-03T22:25:53.081Z,3.00
2018-07-03T22:28:22.530Z,3.13
2018-07-03T22:30:51.906Z,3.20
2018-07-03T22:33:21.791Z,3.57
2018-07-03T22:35:51.102Z,3.07
2018-07-03T22:38:20.515Z,3.27
2018-07-03T22:40:49.981Z,4.40
2018-07-03T22:43:19.392Z,3.80
2018-07-03T22:45:48.807Z,3.63
2018-07-03T22:48:18.780Z,3.77
2018-07-03T22:50:48.168Z,3.40
2018-07-03T22:53:18.274Z,3.23
2018-07-03T22:55:47.686Z,3.10
2018-07-03T22:58:16.708Z,3.90
2018-07-03T23:00:46.085Z,4.27
2018-07-03T23:03:15.496Z,4.00
2018-07-03T23:05:44.895Z,3.80
2018-07-03T23:08:13.960Z,3.53
2018-07-03T23:10:43.337Z,3.80
2018-07-03T23:13:12.725Z,3.33
2018-07-03T23:15:42.127Z,3.50
2018-07-03T23:18:11.679Z,3.10
2018-07-03T23:20:41.115Z,3.50
2018-07-03T23:23:10.459Z,3.30
2018-07-03T23:25:39.892Z,3.50
2018-07-03T23:28:09.369Z,3.77
2018-07-03T23:30:38.721Z,3.47
2018-07-03T23:33:07.771Z,3.17
2018-07-03T23:35:37.165Z,3.10
2018-07-03T23:38:06.931Z,3.50
2018-07-03T23:40:36.351Z,3.90
2018-07-03T23:43:05.716Z,3.33
2018-07-03T23:45:54.502Z,3.30
2018-07-03T23:48:40.515Z,3.60
2018-07-03T23:51:26.605Z,3.23
2018-07-03T23:54:12.771Z,3.20
2018-07-03T23:56:59.016Z,3.57
2018-07-03T23:59:45.132Z,3.50
